createdAt,value
2023-04-23T00:00:30.894Z,20.11
2023-04-23T00:03:01.319Z,20.12
2023-04-23T00:05:31.790Z,20.12
2023-04-23T00:08:03.388Z,20.16
2023-04-23T00:10:33.043Z,19.93
2023-04-23T00:13:05.928Z,19.89
2023-04-23T00:15:36.145Z,19.74
2023-04-23T00:18:05.614Z,19.72
2023-04-23T00:20:35.877Z,19.72
2023-04-23T00:23:05.590Z,19.63
2023-04-23T00:25:35.370Z,19.44
2023-04-23T00:28:07.863Z,19.59
2023-04-23T00:30:37.983Z,19.62
2023-04-23T00:33:07.653Z,19.34
2023-04-23T00:35:37.302Z,19.64
2023-04-23T00:38:06.749Z,19.61
2023-04-23T00:40:36.149Z,19.48
2023-04-23T00:43:09.881Z,19.58
2023-04-23T00:45:39.416Z,19.58
2023-04-23T00:48:09.910Z,19.49
2023-04-23T00:50:39.480Z,19.69
2023-04-23T00:53:09.054Z,19.71
2023-04-23T00:55:38.644Z,19.72
2023-04-23T00:58:10.991Z,19.69
2023-04-23T01:03:24.850Z,20.07
2023-04-23T01:05:55.059Z,19.99
2023-04-23T01:08:27.537Z,19.98
2023-04-23T01:10:57.353Z,20.01
2023-04-23T01:13:29.958Z,20.03
2023-04-23T01:16:00.194Z,20.00
2023-04-23T01:18:29.809Z,19.99
2023-04-23T01:20:59.324Z,19.88
2023-04-23T01:23:31.562Z,19.72
2023-04-23T01:26:01.163Z,19.73
2023-04-23T01:28:30.902Z,19.66
2023-04-23T01:31:04.838Z,19.81
2023-04-23T01:33:34.772Z,19.78
2023-04-23T01:36:05.802Z,19.49
2023-04-23T01:38:41.022Z,19.60
2023-04-23T01:41:10.637Z,19.60
2023-04-23T01:43:40.649Z,19.60
2023-04-23T01:46:10.593Z,19.55
2023-04-23T01:48:40.398Z,19.52
2023-04-23T01:51:09.869Z,19.39
2023-04-23T01:53:41.911Z,19.43
2023-04-23T01:56:12.559Z,19.50
2023-04-23T01:58:42.197Z,19.32
2023-04-23T02:01:11.772Z,19.32
2023-04-23T02:03:41.516Z,19.39
2023-04-23T02:06:11.503Z,19.35
2023-04-23T02:08:44.071Z,19.26
2023-04-23T02:11:13.551Z,19.31
2023-04-23T02:13:42.967Z,19.41
2023-04-23T02:16:13.965Z,19.33
2023-04-23T02:18:43.430Z,19.46
2023-04-23T02:21:13.295Z,19.36
2023-04-23T02:23:45.324Z,19.31
2023-04-23T02:26:14.810Z,19.30
2023-04-23T02:28:44.222Z,19.41
2023-04-23T02:31:13.978Z,19.38
2023-04-23T02:33:43.732Z,19.45
2023-04-23T02:36:13.469Z,19.49
2023-04-23T02:38:45.818Z,19.44
2023-04-23T02:41:15.216Z,19.26
2023-04-23T02:43:44.582Z,19.35
2023-04-23T02:46:13.986Z,19.32
2023-04-23T02:48:44.840Z,19.23
2023-04-23T02:51:15.641Z,19.13
2023-04-23T02:53:47.606Z,19.33
2023-04-23T02:56:17.000Z,19.17
2023-04-23T02:58:46.618Z,19.23
2023-04-23T03:01:16.082Z,19.29
2023-04-23T03:03:46.076Z,19.24
2023-04-23T03:06:15.585Z,19.23
2023-04-23T03:08:47.606Z,19.27
2023-04-23T03:11:17.019Z,19.29
2023-04-23T03:13:46.504Z,19.30
2023-04-23T03:16:15.938Z,19.30
2023-04-23T03:18:45.496Z,19.22
2023-04-23T03:21:14.950Z,19.22
2023-04-23T03:23:47.101Z,19.07
2023-04-23T03:26:16.456Z,18.89
2023-04-23T03:28:45.936Z,18.19
2023-04-23T03:31:15.927Z,18.19
2023-04-23T03:33:45.392Z,18.20
2023-04-23T03:36:15.812Z,18.38
2023-04-23T03:38:47.832Z,17.75
2023-04-23T03:41:17.968Z,18.18
2023-04-23T03:43:47.376Z,18.03
2023-04-23T03:46:16.855Z,17.96
2023-04-23T03:48:46.481Z,17.98
2023-04-23T03:51:16.242Z,17.73
2023-04-23T03:53:48.583Z,18.02
2023-04-23T03:56:18.138Z,18.05
2023-04-23T03:58:47.543Z,18.00
2023-04-23T04:01:17.332Z,17.97
2023-04-23T04:03:46.975Z,17.85
2023-04-23T04:06:16.638Z,18.14
2023-04-23T04:08:48.599Z,17.93
2023-04-23T04:11:18.272Z,17.99
2023-04-23T04:13:47.659Z,18.08
2023-04-23T04:16:17.089Z,17.78
2023-04-23T04:18:46.593Z,17.66
2023-04-23T04:21:17.353Z,17.75
2023-04-23T04:23:49.336Z,17.73
2023-04-23T04:26:19.026Z,17.65
2023-04-23T04:28:48.391Z,17.66
2023-04-23T04:31:20.626Z,17.76
2023-04-23T04:33:50.094Z,17.72
2023-04-23T04:36:19.522Z,17.69
2023-04-23T04:38:52.368Z,17.68
2023-04-23T04:41:22.268Z,17.54
2023-04-23T04:43:51.969Z,17.76
2023-04-23T04:46:21.947Z,17.58
2023-04-23T04:48:51.523Z,17.69
2023-04-23T04:51:20.992Z,17.52
2023-04-23T04:53:53.037Z,17.26
2023-04-23T04:56:24.265Z,17.54
2023-04-23T04:58:53.747Z,17.47
2023-04-23T05:01:24.894Z,17.45
2023-04-23T05:03:54.590Z,17.40
2023-04-23T05:06:24.360Z,17.46
2023-04-23T05:08:56.346Z,17.43
2023-04-23T05:11:25.808Z,17.53
2023-04-23T05:13:55.309Z,17.53
2023-04-23T05:16:24.723Z,17.47
2023-04-23T05:18:54.127Z,17.51
2023-04-23T05:21:23.652Z,17.59
2023-04-23T05:23:53.050Z,17.49
2023-04-23T05:26:25.149Z,17.11
2023-04-23T05:28:54.571Z,17.59
2023-04-23T05:31:23.984Z,17.47
2023-04-23T05:33:53.449Z,17.61
2023-04-23T05:36:22.849Z,17.29
2023-04-23T05:38:52.795Z,17.45
2023-04-23T05:41:24.816Z,17.29
2023-04-23T05:43:54.214Z,17.17
2023-04-23T05:46:23.645Z,17.16
2023-04-23T05:48:53.831Z,17.04
2023-04-23T05:51:23.273Z,17.19
2023-04-23T05:53:55.774Z,17.13
2023-04-23T05:56:28.457Z,17.15
2023-04-23T05:58:58.116Z,17.05
2023-04-23T06:01:27.710Z,16.99
2023-04-23T06:03:57.323Z,16.98
2023-04-23T06:06:28.143Z,16.93
2023-04-23T06:08:57.610Z,16.85
2023-04-23T06:11:32.806Z,17.10
2023-04-23T06:14:04.271Z,16.87
2023-04-23T06:16:33.940Z,16.73
2023-04-23T06:19:03.335Z,17.13
2023-04-23T06:21:32.918Z,17.11
2023-04-23T06:24:02.311Z,17.11
2023-04-23T06:26:34.377Z,16.89
2023-04-23T06:29:03.758Z,16.93
2023-04-23T06:31:33.406Z,16.80
2023-04-23T06:34:02.775Z,16.85
2023-04-23T06:36:32.480Z,16.88
2023-04-23T06:39:04.492Z,16.76
2023-04-23T06:41:36.511Z,16.78
2023-04-23T06:44:06.363Z,16.65
2023-04-23T06:46:35.995Z,16.88
2023-04-23T06:49:05.487Z,16.43
2023-04-23T06:51:35.168Z,16.69
2023-04-23T06:54:04.549Z,16.68
2023-04-23T06:56:36.549Z,16.21
2023-04-23T06:59:06.977Z,16.20
2023-04-23T07:01:37.968Z,16.43
2023-04-23T07:04:07.433Z,16.34
2023-04-23T07:06:36.991Z,16.57
2023-04-23T07:09:07.421Z,16.87
2023-04-23T07:11:39.586Z,16.93
2023-04-23T07:14:09.406Z,16.79
2023-04-23T07:16:38.834Z,16.76
2023-04-23T07:19:08.240Z,16.73
2023-04-23T07:21:37.664Z,16.91
2023-04-23T07:24:07.817Z,16.93
2023-04-23T07:26:40.114Z,16.82
2023-04-23T07:29:10.686Z,16.96
2023-04-23T07:31:42.159Z,16.87
2023-04-23T07:34:11.809Z,16.87
2023-04-23T07:36:41.244Z,16.70
2023-04-23T07:39:11.208Z,16.66
2023-04-23T07:41:43.241Z,16.56
2023-04-23T07:44:12.908Z,16.51
2023-04-23T07:46:42.291Z,16.78
2023-04-23T07:49:11.642Z,16.87
2023-04-23T07:51:41.775Z,16.71
2023-04-23T07:54:11.699Z,16.83
2023-04-23T07:56:43.701Z,16.76
2023-04-23T07:59:13.096Z,16.66
2023-04-23T08:01:42.492Z,16.69
2023-04-23T08:04:13.286Z,16.35
2023-04-23T08:06:43.200Z,16.71
2023-04-23T08:09:12.842Z,16.52
2023-04-23T08:11:45.088Z,16.61
2023-04-23T08:14:14.527Z,16.59
2023-04-23T08:16:43.911Z,16.60
2023-04-23T08:19:13.996Z,16.58
2023-04-23T08:21:43.486Z,16.81
2023-04-23T08:24:13.150Z,16.70
2023-04-23T08:26:45.119Z,16.45
2023-04-23T08:29:14.621Z,16.76
2023-04-23T08:31:44.390Z,16.75
2023-04-23T08:34:15.640Z,16.76
2023-04-23T08:36:46.509Z,16.73
2023-04-23T08:39:16.018Z,17.01
2023-04-23T08:41:52.013Z,16.97
2023-04-23T08:44:22.601Z,17.05
2023-04-23T08:46:52.476Z,17.09
2023-04-23T08:49:22.068Z,17.16
2023-04-23T08:51:52.979Z,16.89
2023-04-23T08:54:26.899Z,17.04
2023-04-23T08:57:02.023Z,17.19
2023-04-23T08:59:36.073Z,16.91
2023-04-23T09:02:10.162Z,17.15
2023-04-23T09:04:40.585Z,17.07
2023-04-23T09:07:11.633Z,17.22
2023-04-23T09:09:42.087Z,17.18
2023-04-23T09:12:14.304Z,17.02
2023-04-23T09:14:43.826Z,17.26
2023-04-23T09:17:13.428Z,17.39
2023-04-23T09:19:43.449Z,17.31
2023-04-23T09:22:13.226Z,17.39
2023-04-23T09:24:45.103Z,17.42
2023-04-23T09:27:26.985Z,17.48
2023-04-23T09:29:59.706Z,17.72
2023-04-23T09:32:35.299Z,17.55
2023-04-23T09:35:09.191Z,17.63
2023-04-23T09:37:40.569Z,17.74
2023-04-23T09:40:11.388Z,17.74
2023-04-23T09:42:43.753Z,17.88
2023-04-23T09:45:16.124Z,17.76
2023-04-23T09:47:53.639Z,17.86
2023-04-23T09:50:34.167Z,17.93
2023-04-23T09:53:04.350Z,17.97
2023-04-23T09:55:35.854Z,18.12
2023-04-23T09:58:10.304Z,18.13
2023-04-23T10:00:42.716Z,18.21
2023-04-23T10:03:13.216Z,18.48
2023-04-23T10:06:00.443Z,18.20
2023-04-23T10:08:32.100Z,18.19
2023-04-23T10:11:19.534Z,18.45
2023-04-23T10:13:52.508Z,18.57
2023-04-23T10:16:28.532Z,18.45
2023-04-23T10:19:04.518Z,18.61
2023-04-23T10:21:50.047Z,18.33
2023-04-23T10:24:28.500Z,18.68
2023-04-23T10:27:02.035Z,18.84
2023-04-23T10:29:36.931Z,18.60
2023-04-23T10:32:09.105Z,18.68
2023-04-23T10:34:38.609Z,18.76
2023-04-23T10:37:09.196Z,18.74
2023-04-23T10:39:39.670Z,18.95
2023-04-23T10:42:09.707Z,18.82
2023-04-23T10:47:17.060Z,18.94
2023-04-23T10:49:47.381Z,18.94
2023-04-23T10:52:21.732Z,19.11
2023-04-23T10:55:01.036Z,19.02
2023-04-23T10:57:30.868Z,19.13
2023-04-23T11:00:06.705Z,19.15
2023-04-23T11:02:46.708Z,19.32
2023-04-23T11:05:16.487Z,19.31
2023-04-23T11:08:18.347Z,19.49
2023-04-23T11:10:58.576Z,19.31
2023-04-23T11:13:29.000Z,19.34
2023-04-23T11:16:19.763Z,19.70
2023-04-23T11:19:03.698Z,19.72
2023-04-23T11:22:01.118Z,19.70
2023-04-23T11:24:32.463Z,19.78
2023-04-23T11:27:02.892Z,19.71
2023-04-23T11:29:32.348Z,19.69
2023-04-23T11:32:05.571Z,19.77
2023-04-23T11:34:36.529Z,19.76
2023-04-23T11:37:06.165Z,19.93
2023-04-23T11:39:35.810Z,19.79
2023-04-23T11:42:06.677Z,19.94
2023-04-23T11:44:36.144Z,20.02
2023-04-23T11:47:11.323Z,20.26
2023-04-23T11:49:41.355Z,20.05
2023-04-23T11:52:11.532Z,20.37
2023-04-23T11:54:43.319Z,20.18
2023-04-23T11:57:14.687Z,20.06
2023-04-23T11:59:44.385Z,20.23
2023-04-23T12:02:16.714Z,20.04
2023-04-23T12:04:46.665Z,20.13
2023-04-23T12:07:25.842Z,20.37
2023-04-23T12:10:01.180Z,20.26
2023-04-23T12:12:36.127Z,20.34
2023-04-23T12:15:09.998Z,20.41
2023-04-23T12:17:42.226Z,20.25
2023-04-23T12:20:15.914Z,20.30
2023-04-23T12:22:45.695Z,20.33
2023-04-23T12:25:16.217Z,20.43
2023-04-23T12:27:49.517Z,20.49
2023-04-23T12:30:19.265Z,20.14
2023-04-23T12:32:51.958Z,20.47
2023-04-23T12:35:22.629Z,20.50
2023-04-23T12:37:52.937Z,20.20
2023-04-23T12:40:23.003Z,20.40
2023-04-23T12:42:52.691Z,20.33
2023-04-23T12:45:22.158Z,20.44
2023-04-23T12:47:54.304Z,20.40
2023-04-23T12:50:23.837Z,20.72
2023-04-23T12:52:53.774Z,20.50
2023-04-23T12:55:24.238Z,20.41
2023-04-23T12:57:53.742Z,20.25
2023-04-23T13:00:24.432Z,20.18
2023-04-23T13:02:58.371Z,20.20
2023-04-23T13:05:27.978Z,20.21
2023-04-23T13:07:57.502Z,20.37
2023-04-23T13:10:27.096Z,20.40
2023-04-23T13:12:56.599Z,20.40
2023-04-23T13:15:27.141Z,20.28
2023-04-23T13:17:59.408Z,20.37
2023-04-23T13:20:29.074Z,20.12
2023-04-23T13:22:58.610Z,20.16
2023-04-23T13:25:28.339Z,20.16
2023-04-23T13:27:58.083Z,20.33
2023-04-23T13:30:27.612Z,20.29
2023-04-23T13:32:59.910Z,20.20
2023-04-23T13:35:29.485Z,20.38
2023-04-23T13:37:59.023Z,20.24
2023-04-23T13:40:28.642Z,20.37
2023-04-23T13:42:58.270Z,20.28
2023-04-23T13:45:29.257Z,20.34
2023-04-23T13:48:02.560Z,20.38
2023-04-23T13:50:32.161Z,20.37
2023-04-23T13:53:01.688Z,20.41
2023-04-23T13:55:31.456Z,20.38
2023-04-23T13:58:01.071Z,20.46
2023-04-23T14:00:31.950Z,20.59
2023-04-23T14:03:04.226Z,20.59
2023-04-23T14:05:34.366Z,20.54
2023-04-23T14:08:04.030Z,20.46
2023-04-23T14:10:34.201Z,20.49
2023-04-23T14:13:06.256Z,20.50
2023-04-23T14:15:35.921Z,20.39
2023-04-23T14:18:08.637Z,20.47
2023-04-23T14:20:38.694Z,20.40
2023-04-23T14:23:41.105Z,20.63
2023-04-23T14:26:13.016Z,20.57
2023-04-23T14:28:47.566Z,20.62
2023-04-23T14:31:17.135Z,20.44
2023-04-23T14:33:49.302Z,20.18
2023-04-23T14:36:19.587Z,19.94
2023-04-23T14:38:49.189Z,20.05
2023-04-23T14:41:18.747Z,20.06
2023-04-23T14:43:48.245Z,20.16
2023-04-23T14:46:17.796Z,20.05
2023-04-23T14:48:51.510Z,20.10
2023-04-23T14:51:21.942Z,20.24
2023-04-23T14:53:51.547Z,20.19
2023-04-23T14:56:21.077Z,20.18
2023-04-23T14:58:50.729Z,19.89
2023-04-23T15:01:20.296Z,19.62
2023-04-23T15:03:52.907Z,19.70
2023-04-23T15:06:22.594Z,19.40
2023-04-23T15:08:52.106Z,19.47
2023-04-23T15:11:21.850Z,19.36
2023-04-23T15:14:00.097Z,19.41
2023-04-23T15:19:10.218Z,19.29
2023-04-23T15:21:43.371Z,19.35
2023-04-23T15:24:13.472Z,19.30
2023-04-23T15:26:43.134Z,19.44
2023-04-23T15:29:14.124Z,19.43
2023-04-23T15:31:43.779Z,19.51
2023-04-23T15:34:15.992Z,19.56
2023-04-23T15:36:45.500Z,19.53
2023-04-23T15:39:14.970Z,19.59
2023-04-23T15:41:46.113Z,19.58
2023-04-23T15:44:16.166Z,19.53
2023-04-23T15:46:45.667Z,19.65
2023-04-23T15:49:17.744Z,19.75
2023-04-23T15:53:34.724Z,19.76
2023-04-23T15:56:04.604Z,19.90
2023-04-23T15:58:34.008Z,19.74
2023-04-23T16:01:06.021Z,19.71
2023-04-23T16:03:35.825Z,19.57
2023-04-23T16:06:05.413Z,19.50
2023-04-23T16:08:37.386Z,19.31
2023-04-23T16:11:08.982Z,19.09
2023-04-23T16:13:38.602Z,18.81
2023-04-23T16:16:08.369Z,18.63
2023-04-23T16:18:37.718Z,18.62
2023-04-23T16:21:07.176Z,18.38
2023-04-23T16:23:39.146Z,18.38
2023-04-23T16:26:09.162Z,18.25
2023-04-23T16:28:38.602Z,18.16
2023-04-23T16:31:08.235Z,18.12
2023-04-23T16:33:37.652Z,18.28
2023-04-23T16:36:08.094Z,18.31
2023-04-23T16:38:40.220Z,18.42
2023-04-23T16:41:09.534Z,18.37
2023-04-23T16:43:38.851Z,18.58
2023-04-23T16:46:09.394Z,18.79
2023-04-23T16:48:38.789Z,18.95
2023-04-23T16:51:08.654Z,19.07
2023-04-23T16:53:40.814Z,18.99
2023-04-23T16:56:10.208Z,19.08
2023-04-23T16:58:39.690Z,18.89
2023-04-23T17:01:09.035Z,18.91
2023-04-23T17:03:40.309Z,18.78
2023-04-23T17:06:14.574Z,18.92
2023-04-23T17:08:46.653Z,18.85
2023-04-23T17:11:15.989Z,18.78
2023-04-23T17:13:45.889Z,18.95
2023-04-23T17:16:15.324Z,18.98
2023-04-23T17:18:44.692Z,18.97
2023-04-23T17:21:14.101Z,19.07
2023-04-23T17:23:45.993Z,19.06
2023-04-23T17:26:15.666Z,19.04
2023-04-23T17:28:44.993Z,19.02
2023-04-23T17:31:14.708Z,19.03
2023-04-23T17:33:47.089Z,19.11
2023-04-23T17:36:16.905Z,19.13
2023-04-23T17:38:48.892Z,19.10
2023-04-23T17:41:19.549Z,19.17
2023-04-23T17:43:49.450Z,19.14
2023-04-23T17:46:19.460Z,19.16
2023-04-23T17:48:49.157Z,19.21
2023-04-23T17:51:18.678Z,19.12
2023-04-23T17:53:52.035Z,19.14
2023-04-23T17:56:21.925Z,19.09
2023-04-23T17:58:51.294Z,19.07
2023-04-23T18:01:20.844Z,18.96
2023-04-23T18:03:51.817Z,18.94
2023-04-23T18:06:22.755Z,18.76
2023-04-23T18:08:54.723Z,18.79
2023-04-23T18:11:24.553Z,18.73
2023-04-23T18:13:53.920Z,18.66
2023-04-23T18:16:23.433Z,18.69
2023-04-23T18:18:52.862Z,18.67
2023-04-23T18:21:22.728Z,18.73
2023-04-23T18:23:54.752Z,18.65
2023-04-23T18:26:24.087Z,18.63
2023-04-23T18:28:53.421Z,18.58
2023-04-23T18:31:23.711Z,18.56
2023-04-23T18:33:56.647Z,18.62
2023-04-23T18:36:28.111Z,18.54
2023-04-23T18:39:00.309Z,18.60
2023-04-23T18:41:31.135Z,18.56
2023-04-23T18:44:00.582Z,18.55
2023-04-23T18:46:31.217Z,18.49
2023-04-23T18:49:03.372Z,18.50
2023-04-23T18:51:35.776Z,18.47
2023-04-23T18:54:07.911Z,18.49
2023-04-23T18:56:37.257Z,18.33
2023-04-23T18:59:06.594Z,18.38
2023-04-23T19:01:36.118Z,18.33
2023-04-23T19:04:06.134Z,18.34
2023-04-23T19:06:35.586Z,18.39
2023-04-23T19:09:07.509Z,18.42
2023-04-23T19:11:38.278Z,18.41
2023-04-23T19:14:07.722Z,18.38
2023-04-23T19:16:37.151Z,18.40
2023-04-23T19:19:06.525Z,18.38
2023-04-23T19:21:36.024Z,18.47
2023-04-23T19:24:08.421Z,18.42
2023-04-23T19:26:37.859Z,18.39
2023-04-23T19:29:08.128Z,18.35
2023-04-23T19:31:37.591Z,18.27
2023-04-23T19:34:07.000Z,18.23
2023-04-23T19:36:36.336Z,18.25
2023-04-23T19:39:08.204Z,18.25
2023-04-23T19:41:37.537Z,18.18
2023-04-23T19:44:07.051Z,18.18
2023-04-23T19:46:36.528Z,18.15
2023-04-23T19:49:06.114Z,18.06
2023-04-23T19:51:38.118Z,18.05
2023-04-23T19:54:10.201Z,18.10
2023-04-23T19:56:39.529Z,18.09
2023-04-23T19:59:09.811Z,18.09
2023-04-23T20:01:39.155Z,18.05
2023-04-23T20:04:09.552Z,18.02
2023-04-23T20:06:39.045Z,18.13
2023-04-23T20:09:18.482Z,18.08
2023-04-23T20:11:48.645Z,18.04
2023-04-23T20:14:18.037Z,17.94
2023-04-23T20:16:47.632Z,17.92
2023-04-23T20:19:19.283Z,18.03
2023-04-23T20:21:48.617Z,18.04
2023-04-23T20:24:21.502Z,17.93
2023-04-23T20:26:51.495Z,17.86
2023-04-23T20:29:20.853Z,17.86
2023-04-23T20:31:50.275Z,17.86
2023-04-23T20:34:20.042Z,17.71
2023-04-23T20:36:51.312Z,17.78
2023-04-23T20:39:24.538Z,17.82
2023-04-23T20:41:55.530Z,17.83
2023-04-23T20:44:25.945Z,17.87
2023-04-23T20:46:57.918Z,17.77
2023-04-23T20:49:27.863Z,17.88
2023-04-23T20:51:57.165Z,17.96
2023-04-23T20:54:30.591Z,17.91
2023-04-23T20:57:00.091Z,17.90
2023-04-23T20:59:29.420Z,17.82
2023-04-23T21:01:59.090Z,17.80
2023-04-23T21:04:28.502Z,17.81
2023-04-23T21:06:57.948Z,17.67
2023-04-23T21:09:29.938Z,17.74
2023-04-23T21:11:59.664Z,17.70
2023-04-23T21:14:29.111Z,17.72
2023-04-23T21:16:58.545Z,17.68
2023-04-23T21:19:27.891Z,17.45
2023-04-23T21:21:57.225Z,17.54
2023-04-23T21:24:26.692Z,17.43
2023-04-23T21:26:58.685Z,17.37
2023-04-23T21:29:28.680Z,17.39
2023-04-23T21:31:58.018Z,17.37
2023-04-23T21:34:27.570Z,17.24
2023-04-23T21:36:57.219Z,17.16
2023-04-23T21:39:26.528Z,17.25
2023-04-23T21:41:58.480Z,17.09
2023-04-23T21:44:28.742Z,17.04
2023-04-23T21:46:58.104Z,17.00
2023-04-23T21:49:27.900Z,17.02
2023-04-23T21:51:57.359Z,16.99
2023-04-23T21:54:26.718Z,16.83
2023-04-23T21:56:58.741Z,16.77
2023-04-23T21:59:29.509Z,16.74
2023-04-23T22:01:58.917Z,16.63
2023-04-23T22:04:30.768Z,16.64
2023-04-23T22:07:05.685Z,16.62
2023-04-23T22:09:35.041Z,16.46
2023-04-23T22:12:07.612Z,16.40
2023-04-23T22:14:37.341Z,16.39
2023-04-23T22:17:07.713Z,16.29
2023-04-23T22:19:39.514Z,16.26
2023-04-23T22:22:11.931Z,16.21
2023-04-23T22:24:41.375Z,15.98
2023-04-23T22:27:14.468Z,16.10
2023-04-23T22:29:46.086Z,16.13
2023-04-23T22:32:15.460Z,16.08
2023-04-23T22:34:44.906Z,16.23
2023-04-23T22:37:14.347Z,16.16
2023-04-23T22:39:43.979Z,16.10
2023-04-23T22:42:16.327Z,16.26
2023-04-23T22:44:46.255Z,16.20
2023-04-23T22:47:16.197Z,16.54
2023-04-23T22:49:46.128Z,16.73
2023-04-23T22:52:17.071Z,16.83
2023-04-23T22:54:47.011Z,16.95
2023-04-23T22:57:18.922Z,16.95
2023-04-23T22:59:49.441Z,16.95
2023-04-23T23:02:19.065Z,17.17
2023-04-23T23:04:50.732Z,17.21
2023-04-23T23:07:21.718Z,17.05
2023-04-23T23:09:51.057Z,17.02
2023-04-23T23:12:23.119Z,16.79
2023-04-23T23:14:52.588Z,16.85
2023-04-23T23:17:22.323Z,16.58
2023-04-23T23:19:51.689Z,16.24
2023-04-23T23:22:21.057Z,16.17
2023-04-23T23:24:50.393Z,15.79
2023-04-23T23:27:19.881Z,15.61
2023-04-23T23:29:51.799Z,15.57
2023-04-23T23:32:21.560Z,15.46
2023-04-23T23:34:50.925Z,15.58
2023-04-23T23:37:20.226Z,15.57
2023-04-23T23:39:49.851Z,15.55
2023-04-23T23:42:19.168Z,15.71
2023-04-23T23:44:51.130Z,15.68
2023-04-23T23:47:20.531Z,15.64
2023-04-23T23:49:50.028Z,15.76
2023-04-23T23:52:19.376Z,15.84
2023-04-23T23:54:48.683Z,15.72
2023-04-23T23:57:18.001Z,15.80
2023-04-23T23:59:47.346Z,15.76
